sensor_id;sensor_type;location;lat;lon;timestamp;pressure;altitude;pressure_sealevel;temperature;humidity
12475;BME280;6302;42.624;23.334;2023-03-22T00:01:12;92942.19;;;9.70;100.00
12475;BME280;6302;42.624;23.334;2023-03-22T00:03:40;92944.09;;;9.70;100.00
12475;BME280;6302;42.624;23.334;2023-03-22T00:06:09;92944.44;;;9.72;100.00
12475;BME280;6302;42.624;23.334;2023-03-22T00:08:36;92940.69;;;9.69;100.00
12475;BME280;6302;42.624;23.334;2023-03-22T00:11:03;92941.81;;;9.68;100.00
12475;BME280;6302;42.624;23.334;2023-03-22T00:13:31;92938.41;;;9.71;100.00
12475;BME280;6302;42.624;23.334;2023-03-22T00:15:58;92939.53;;;9.70;100.00
12475;BME280;6302;42.624;23.334;2023-03-22T00:18:27;92944.81;;;9.70;100.00
12475;BME280;6302;42.624;23.334;2023-03-22T00:20:55;92940.28;;;9.71;100.00
12475;BME280;6302;42.624;23.334;2023-03-22T00:23:25;92937.66;;;9.71;100.00
12475;BME280;6302;42.624;23.334;2023-03-22T00:25:53;92938.06;;;9.69;100.00
12475;BME280;6302;42.624;23.334;2023-03-22T00:28:20;92931.59;;;9.70;100.00
12475;BME280;6302;42.624;23.334;2023-03-22T00:30:51;92929.72;;;9.71;100.00
12475;BME280;6302;42.624;23.334;2023-03-22T00:33:18;92926.72;;;9.69;100.00
12475;BME280;6302;42.624;23.334;2023-03-22T00:35:49;92926.72;;;9.65;100.00
12475;BME280;6302;42.624;23.334;2023-03-22T00:38:16;92925.25;;;9.64;100.00
12475;BME280;6302;42.624;23.334;2023-03-22T00:40:45;92921.84;;;9.64;100.00
12475;BME280;6302;42.624;23.334;2023-03-22T00:43:12;92926.38;;;9.63;100.00
12475;BME280;6302;42.624;23.334;2023-03-22T00:45:39;92922.28;;;9.59;100.00
12475;BME280;6302;42.624;23.334;2023-03-22T00:48:07;92917.06;;;9.52;100.00
12475;BME280;6302;42.624;23.334;2023-03-22T00:50:35;92919.38;;;9.46;100.00
12475;BME280;6302;42.624;23.334;2023-03-22T00:53:02;92916.44;;;9.37;100.00
12475;BME280;6302;42.624;23.334;2023-03-22T00:55:30;92919.44;;;9.39;100.00
12475;BME280;6302;42.624;23.334;2023-03-22T00:57:58;92916.59;;;9.23;100.00
12475;BME280;6302;42.624;23.334;2023-03-22T01:00:25;92918.16;;;9.17;100.00
12475;BME280;6302;42.624;23.334;2023-03-22T01:02:52;92920.00;;;9.20;100.00
12475;BME280;6302;42.624;23.334;2023-03-22T01:05:24;92921.13;;;9.23;100.00
12475;BME280;6302;42.624;23.334;2023-03-22T01:07:52;92918.84;;;9.21;100.00
12475;BME280;6302;42.624;23.334;2023-03-22T01:10:19;92915.09;;;9.22;100.00
12475;BME280;6302;42.624;23.334;2023-03-22T01:12:46;92915.44;;;9.24;100.00
12475;BME280;6302;42.624;23.334;2023-03-22T01:15:14;92909.78;;;9.26;100.00
12475;BME280;6302;42.624;23.334;2023-03-22T01:17:41;92913.53;;;9.28;100.00
12475;BME280;6302;42.624;23.334;2023-03-22T01:20:09;92904.09;;;9.24;100.00
12475;BME280;6302;42.624;23.334;2023-03-22T01:22:36;92904.63;;;9.08;100.00
12475;BME280;6302;42.624;23.334;2023-03-22T01:25:03;92910.69;;;9.08;100.00
12475;BME280;6302;42.624;23.334;2023-03-22T01:27:30;92900.81;;;9.12;100.00
12475;BME280;6302;42.624;23.334;2023-03-22T01:29:57;92904.56;;;9.15;100.00
12475;BME280;6302;42.624;23.334;2023-03-22T01:32:25;92905.31;;;9.15;100.00
12475;BME280;6302;42.624;23.334;2023-03-22T01:34:52;92892.50;;;9.14;100.00
12475;BME280;6302;42.624;23.334;2023-03-22T01:37:19;92901.16;;;9.18;100.00
12475;BME280;6302;42.624;23.334;2023-03-22T01:39:46;92898.09;;;9.20;100.00
12475;BME280;6302;42.624;23.334;2023-03-22T01:42:13;92898.88;;;9.20;100.00
12475;BME280;6302;42.624;23.334;2023-03-22T01:44:42;92897.69;;;9.21;100.00
12475;BME280;6302;42.624;23.334;2023-03-22T01:47:10;92898.47;;;9.22;100.00
12475;BME280;6302;42.624;23.334;2023-03-22T01:49:39;92887.13;;;9.21;100.00
12475;BME280;6302;42.624;23.334;2023-03-22T01:52:09;92881.53;;;9.15;100.00
12475;BME280;6302;42.624;23.334;2023-03-22T01:54:39;92886.41;;;9.17;100.00
12475;BME280;6302;42.624;23.334;2023-03-22T01:57:07;92887.53;;;9.20;100.00
12475;BME280;6302;42.624;23.334;2023-03-22T01:59:34;92892.03;;;9.23;100.00
12475;BME280;6302;42.624;23.334;2023-03-22T02:02:02;92881.84;;;9.21;100.00
12475;BME280;6302;42.624;23.334;2023-03-22T02:04:33;92890.19;;;9.20;100.00
12475;BME280;6302;42.624;23.334;2023-03-22T02:07:05;92890.19;;;9.16;100.00
12475;BME280;6302;42.624;23.334;2023-03-22T02:09:34;92888.78;;;9.08;100.00
12475;BME280;6302;42.624;23.334;2023-03-22T02:12:12;92888.38;;;9.09;100.00
12475;BME280;6302;42.624;23.334;2023-03-22T02:15:01;92891.41;;;9.08;100.00
12475;BME280;6302;42.624;23.334;2023-03-22T02:17:41;92882.81;;;9.00;100.00
12475;BME280;6302;42.624;23.334;2023-03-22T02:20:57;92888.44;;;9.06;100.00
12475;BME280;6302;42.624;23.334;2023-03-22T02:24:16;92890.31;;;9.05;100.00
12475;BME280;6302;42.624;23.334;2023-03-22T02:29:47;92895.59;;;9.05;100.00
12475;BME280;6302;42.624;23.334;2023-03-22T02:32:43;92891.44;;;9.04;100.00
12475;BME280;6302;42.624;23.334;2023-03-22T02:35:36;92894.13;;;9.01;100.00
12475;BME280;6302;42.624;23.334;2023-03-22T02:38:45;92899.38;;;9.04;100.00
12475;BME280;6302;42.624;23.334;2023-03-22T02:41:16;92903.16;;;9.03;100.00
12475;BME280;6302;42.624;23.334;2023-03-22T02:43:55;92906.19;;;9.02;100.00
12475;BME280;6302;42.624;23.334;2023-03-22T02:46:29;92913.00;;;9.03;100.00
12475;BME280;6302;42.624;23.334;2023-03-22T02:49:03;92906.19;;;9.02;100.00
12475;BME280;6302;42.624;23.334;2023-03-22T02:51:40;92911.13;;;9.00;100.00
12475;BME280;6302;42.624;23.334;2023-03-22T02:54:12;92910.72;;;9.01;100.00
12475;BME280;6302;42.624;23.334;2023-03-22T02:56:47;92916.41;;;9.00;100.00
12475;BME280;6302;42.624;23.334;2023-03-22T02:59:16;92916.03;;;8.98;100.00
12475;BME280;6302;42.624;23.334;2023-03-22T03:01:48;92910.81;;;8.91;100.00
12475;BME280;6302;42.624;23.334;2023-03-22T03:04:18;92916.88;;;8.88;100.00
12475;BME280;6302;42.624;23.334;2023-03-22T03:06:47;92909.72;;;8.85;100.00
12475;BME280;6302;42.624;23.334;2023-03-22T03:09:18;92912.38;;;8.85;100.00
12475;BME280;6302;42.624;23.334;2023-03-22T03:11:49;92917.63;;;8.88;100.00
12475;BME280;6302;42.624;23.334;2023-03-22T03:14:21;92924.03;;;8.91;100.00
12475;BME280;6302;42.624;23.334;2023-03-22T03:16:58;92919.88;;;8.90;100.00
12475;BME280;6302;42.624;23.334;2023-03-22T03:19:32;92917.59;;;8.92;100.00
12475;BME280;6302;42.624;23.334;2023-03-22T03:22:28;92910.88;;;8.84;100.00
12475;BME280;6302;42.624;23.334;2023-03-22T03:25:08;92925.56;;;8.88;100.00
12475;BME280;6302;42.624;23.334;2023-03-22T03:27:40;92927.81;;;8.86;100.00
12475;BME280;6302;42.624;23.334;2023-03-22T03:30:12;92934.66;;;8.84;100.00
12475;BME280;6302;42.624;23.334;2023-03-22T03:32:44;92925.56;;;8.85;100.00
12475;BME280;6302;42.624;23.334;2023-03-22T03:35:16;92924.44;;;8.86;100.00
12475;BME280;6302;42.624;23.334;2023-03-22T03:37:50;92924.47;;;8.82;100.00
12475;BME280;6302;42.624;23.334;2023-03-22T03:40:22;92922.19;;;8.84;100.00
12475;BME280;6302;42.624;23.334;2023-03-22T03:42:52;92922.94;;;8.85;100.00
12475;BME280;6302;42.624;23.334;2023-03-22T03:45:20;92930.47;;;8.86;100.00
12475;BME280;6302;42.624;23.334;2023-03-22T03:47:51;92928.56;;;8.87;100.00
12475;BME280;6302;42.624;23.334;2023-03-22T03:50:22;92933.84;;;8.87;100.00
12475;BME280;6302;42.624;23.334;2023-03-22T03:52:50;92936.13;;;8.88;100.00
12475;BME280;6302;42.624;23.334;2023-03-22T03:55:19;92927.47;;;8.84;100.00
12475;BME280;6302;42.624;23.334;2023-03-22T03:57:47;92930.09;;;8.88;100.00
12475;BME280;6302;42.624;23.334;2023-03-22T04:00:15;92920.34;;;8.81;100.00
12475;BME280;6302;42.624;23.334;2023-03-22T04:02:43;92932.09;;;8.73;100.00
12475;BME280;6302;42.624;23.334;2023-03-22T04:05:10;92919.28;;;8.68;100.00
12475;BME280;6302;42.624;23.334;2023-03-22T04:07:38;92930.63;;;8.69;100.00
12475;BME280;6302;42.624;23.334;2023-03-22T04:10:06;92937.03;;;8.64;100.00
12475;BME280;6302;42.624;23.334;2023-03-22T04:12:34;92931.06;;;8.57;100.00
12475;BME280;6302;42.624;23.334;2023-03-22T04:15:01;92941.66;;;8.49;100.00
12475;BME280;6302;42.624;23.334;2023-03-22T04:17:28;92941.28;;;8.47;100.00
12475;BME280;6302;42.624;23.334;2023-03-22T04:19:56;92935.25;;;8.47;100.00
12475;BME280;6302;42.624;23.334;2023-03-22T04:22:23;92938.69;;;8.40;100.00
12475;BME280;6302;42.624;23.334;2023-03-22T04:24:51;92946.94;;;8.49;100.00
12475;BME280;6302;42.624;23.334;2023-03-22T04:27:19;92939.41;;;8.44;100.00
12475;BME280;6302;42.624;23.334;2023-03-22T04:29:48;92941.28;;;8.47;100.00
12475;BME280;6302;42.624;23.334;2023-03-22T04:32:15;92933.81;;;8.35;100.00
12475;BME280;6302;42.624;23.334;2023-03-22T04:34:43;92948.84;;;8.45;100.00
12475;BME280;6302;42.624;23.334;2023-03-22T04:37:10;92949.22;;;8.47;100.00
12475;BME280;6302;42.624;23.334;2023-03-22T04:39:37;92954.84;;;8.49;100.00
12475;BME280;6302;42.624;23.334;2023-03-22T04:42:04;92957.88;;;8.52;100.00
12475;BME280;6302;42.624;23.334;2023-03-22T04:44:31;92950.31;;;8.54;100.00
12475;BME280;6302;42.624;23.334;2023-03-22T04:46:59;92952.56;;;8.59;100.00
12475;BME280;6302;42.624;23.334;2023-03-22T04:49:26;92955.91;;;8.63;100.00
12475;BME280;6302;42.624;23.334;2023-03-22T04:51:53;92960.06;;;8.64;100.00
12475;BME280;6302;42.624;23.334;2023-03-22T04:54:20;92948.41;;;8.61;100.00
12475;BME280;6302;42.624;23.334;2023-03-22T04:56:47;92963.84;;;8.66;100.00
12475;BME280;6302;42.624;23.334;2023-03-22T04:59:15;92966.47;;;8.66;100.00
12475;BME280;6302;42.624;23.334;2023-03-22T05:01:44;92960.03;;;8.67;100.00
12475;BME280;6302;42.624;23.334;2023-03-22T05:04:13;92969.09;;;8.70;100.00
12475;BME280;6302;42.624;23.334;2023-03-22T05:06:40;92955.56;;;8.61;100.00
12475;BME280;6302;42.624;23.334;2023-03-22T05:09:08;92971.38;;;8.68;100.00
12475;BME280;6302;42.624;23.334;2023-03-22T05:11:35;92976.66;;;8.68;100.00
12475;BME280;6302;42.624;23.334;2023-03-22T05:14:02;92980.03;;;8.68;100.00
12475;BME280;6302;42.624;23.334;2023-03-22T05:16:29;92982.28;;;8.70;100.00
12475;BME280;6302;42.624;23.334;2023-03-22T05:18:56;92978.88;;;8.69;100.00
12475;BME280;6302;42.624;23.334;2023-03-22T05:21:24;92979.63;;;8.73;100.00
12475;BME280;6302;42.624;23.334;2023-03-22T05:24:02;92981.53;;;8.73;100.00
12475;BME280;6302;42.624;23.334;2023-03-22T05:26:43;92963.88;;;8.56;100.00
12475;BME280;6302;42.624;23.334;2023-03-22T05:29:10;92988.69;;;8.76;100.00
12475;BME280;6302;42.624;23.334;2023-03-22T05:31:36;92985.63;;;8.77;100.00
12475;BME280;6302;42.624;23.334;2023-03-22T05:34:04;92992.41;;;8.82;100.00
12475;BME280;6302;42.624;23.334;2023-03-22T05:36:33;92990.91;;;8.81;100.00
12475;BME280;6302;42.624;23.334;2023-03-22T05:39:01;92993.91;;;8.83;100.00
12475;BME280;6302;42.624;23.334;2023-03-22T05:41:28;92992.03;;;8.83;100.00
12475;BME280;6302;42.624;23.334;2023-03-22T05:43:56;92988.63;;;8.83;100.00
12475;BME280;6302;42.624;23.334;2023-03-22T05:46:22;92989.75;;;8.85;100.00
12475;BME280;6302;42.624;23.334;2023-03-22T05:48:49;92995.75;;;8.93;100.00
12475;BME280;6302;42.624;23.334;2023-03-22T05:51:17;93003.63;;;8.96;100.00
12475;BME280;6302;42.624;23.334;2023-03-22T05:53:46;93006.25;;;9.00;100.00
12475;BME280;6302;42.624;23.334;2023-03-22T05:56:14;93002.84;;;9.03;100.00
12475;BME280;6302;42.624;23.334;2023-03-22T05:58:41;93009.72;;;8.93;100.00
12475;BME280;6302;42.624;23.334;2023-03-22T06:01:10;93008.94;;;8.93;100.00
12475;BME280;6302;42.624;23.334;2023-03-22T06:03:37;93012.06;;;8.81;100.00
12475;BME280;6302;42.624;23.334;2023-03-22T06:06:06;93015.81;;;8.80;100.00
12475;BME280;6302;42.624;23.334;2023-03-22T06:08:35;93022.97;;;8.79;100.00
12475;BME280;6302;42.624;23.334;2023-03-22T06:11:04;93021.47;;;8.82;100.00
12475;BME280;6302;42.624;23.334;2023-03-22T06:13:31;93024.50;;;8.84;100.00
12475;BME280;6302;42.624;23.334;2023-03-22T06:15:58;93024.88;;;8.82;100.00
12475;BME280;6302;42.624;23.334;2023-03-22T06:18:26;93026.34;;;8.87;100.00
12475;BME280;6302;42.624;23.334;2023-03-22T06:20:53;93022.94;;;8.93;100.00
12475;BME280;6302;42.624;23.334;2023-03-22T06:23:21;93022.50;;;8.98;100.00
12475;BME280;6302;42.624;23.334;2023-03-22T06:25:47;93021.34;;;9.03;100.00
12475;BME280;6302;42.624;23.334;2023-03-22T06:28:16;93022.06;;;9.07;100.00
12475;BME280;6302;42.624;23.334;2023-03-22T06:30:43;93025.06;;;9.09;100.00
12475;BME280;6302;42.624;23.334;2023-03-22T06:33:09;93028.81;;;9.11;100.00
12475;BME280;6302;42.624;23.334;2023-03-22T06:35:36;93027.28;;;9.18;100.00
12475;BME280;6302;42.624;23.334;2023-03-22T06:38:03;93018.66;;;9.10;100.00
12475;BME280;6302;42.624;23.334;2023-03-22T06:40:30;93033.63;;;9.27;100.00
12475;BME280;6302;42.624;23.334;2023-03-22T06:42:56;93032.09;;;9.33;100.00
12475;BME280;6302;42.624;23.334;2023-03-22T06:45:25;93037.00;;;9.31;100.00
12475;BME280;6302;42.624;23.334;2023-03-22T06:47:57;93034.28;;;9.38;100.00
12475;BME280;6302;42.624;23.334;2023-03-22T06:50:25;93037.69;;;9.42;100.00
12475;BME280;6302;42.624;23.334;2023-03-22T06:52:52;93037.25;;;9.47;100.00
12475;BME280;6302;42.624;23.334;2023-03-22T06:55:18;93046.31;;;9.50;100.00
12475;BME280;6302;42.624;23.334;2023-03-22T06:57:45;93040.25;;;9.49;100.00
12475;BME280;6302;42.624;23.334;2023-03-22T07:00:13;93045.31;;;9.33;100.00
12475;BME280;6302;42.624;23.334;2023-03-22T07:02:41;93049.09;;;9.32;100.00
12475;BME280;6302;42.624;23.334;2023-03-22T07:05:08;93057.38;;;9.34;100.00
12475;BME280;6302;42.624;23.334;2023-03-22T07:07:35;93057.03;;;9.32;100.00
12475;BME280;6302;42.624;23.334;2023-03-22T07:10:03;93062.25;;;9.39;100.00
12475;BME280;6302;42.624;23.334;2023-03-22T07:12:32;93060.06;;;9.27;100.00
12475;BME280;6302;42.624;23.334;2023-03-22T07:14:59;93068.41;;;9.22;100.00
12475;BME280;6302;42.624;23.334;2023-03-22T07:17:26;93065.81;;;9.15;100.00
12475;BME280;6302;42.624;23.334;2023-03-22T07:19:54;93071.06;;;9.22;100.00
12475;BME280;6302;42.624;23.334;2023-03-22T07:22:21;93068.81;;;9.21;100.00
12475;BME280;6302;42.624;23.334;2023-03-22T07:24:49;93071.00;;;9.29;100.00
12475;BME280;6302;42.624;23.334;2023-03-22T07:27:16;93078.13;;;9.36;100.00
12475;BME280;6302;42.624;23.334;2023-03-22T07:29:43;93078.94;;;9.29;100.00
12475;BME280;6302;42.624;23.334;2023-03-22T07:32:10;93082.00;;;9.28;100.00
12475;BME280;6302;42.624;23.334;2023-03-22T07:34:37;93084.28;;;9.26;100.00
12475;BME280;6302;42.624;23.334;2023-03-22T07:37:05;93082.34;;;9.26;100.00
12475;BME280;6302;42.624;23.334;2023-03-22T07:39:33;93086.47;;;9.34;100.00
12475;BME280;6302;42.624;23.334;2023-03-22T07:42:00;93085.34;;;9.35;100.00
12475;BME280;6302;42.624;23.334;2023-03-22T07:44:27;93090.22;;;9.40;100.00
12475;BME280;6302;42.624;23.334;2023-03-22T07:46:54;93097.00;;;9.41;100.00
12475;BME280;6302;42.624;23.334;2023-03-22T07:49:20;93098.16;;;9.40;100.00
12475;BME280;6302;42.624;23.334;2023-03-22T07:51:47;93089.41;;;9.43;100.00
12475;BME280;6302;42.624;23.334;2023-03-22T07:54:16;93097.00;;;9.41;100.00
12475;BME280;6302;42.624;23.334;2023-03-22T07:56:43;93088.69;;;9.43;100.00
12475;BME280;6302;42.624;23.334;2023-03-22T07:59:12;93105.22;;;9.54;100.00
12475;BME280;6302;42.624;23.334;2023-03-22T08:01:39;93102.63;;;9.50;100.00
12475;BME280;6302;42.624;23.334;2023-03-22T08:04:06;93104.16;;;9.44;100.00
12475;BME280;6302;42.624;23.334;2023-03-22T08:06:32;93105.28;;;9.47;100.00
12475;BME280;6302;42.624;23.334;2023-03-22T08:09:01;93107.56;;;9.45;100.00
12475;BME280;6302;42.624;23.334;2023-03-22T08:11:29;93094.69;;;9.50;100.00
12475;BME280;6302;42.624;23.334;2023-03-22T08:13:56;93096.50;;;9.57;100.00
12475;BME280;6302;42.624;23.334;2023-03-22T08:16:23;93095.34;;;9.61;100.00
12475;BME280;6302;42.624;23.334;2023-03-22T08:18:49;93098.34;;;9.63;100.00
12475;BME280;6302;42.624;23.334;2023-03-22T08:21:16;93090.75;;;9.65;100.00
12475;BME280;6302;42.624;23.334;2023-03-22T08:23:43;93097.91;;;9.72;100.00
12475;BME280;6302;42.624;23.334;2023-03-22T08:26:10;93105.78;;;9.79;100.00
12475;BME280;6302;42.624;23.334;2023-03-22T08:28:38;93114.06;;;9.85;100.00
12475;BME280;6302;42.624;23.334;2023-03-22T08:31:09;93088.81;;;9.76;100.00
12475;BME280;6302;42.624;23.334;2023-03-22T08:33:36;93112.56;;;9.83;100.00
12475;BME280;6302;42.624;23.334;2023-03-22T08:36:04;93106.50;;;9.87;100.00
12475;BME280;6302;42.624;23.334;2023-03-22T08:38:32;93100.78;;;9.92;100.00
12475;BME280;6302;42.624;23.334;2023-03-22T08:40:59;93105.66;;;9.93;100.00
12475;BME280;6302;42.624;23.334;2023-03-22T08:43:26;93110.19;;;9.96;100.00
12475;BME280;6302;42.624;23.334;2023-03-22T08:45:54;93113.53;;;10.00;100.00
12475;BME280;6302;42.624;23.334;2023-03-22T08:48:21;93114.69;;;9.99;100.00
12475;BME280;6302;42.624;23.334;2023-03-22T08:50:47;93114.34;;;9.97;100.00
12475;BME280;6302;42.624;23.334;2023-03-22T08:53:14;93111.69;;;9.97;100.00
12475;BME280;6302;42.624;23.334;2023-03-22T08:55:41;93114.66;;;10.03;100.00
12475;BME280;6302;42.624;23.334;2023-03-22T08:58:09;93114.66;;;10.03;100.00
12475;BME280;6302;42.624;23.334;2023-03-22T09:00:36;93122.19;;;10.08;100.00
12475;BME280;6302;42.624;23.334;2023-03-22T09:03:05;93123.69;;;10.09;100.00
12475;BME280;6302;42.624;23.334;2023-03-22T09:05:32;93120.63;;;10.10;100.00
12475;BME280;6302;42.624;23.334;2023-03-22T09:07:59;93126.69;;;10.11;100.00
12475;BME280;6302;42.624;23.334;2023-03-22T09:10:28;93125.16;;;10.10;100.00
12475;BME280;6302;42.624;23.334;2023-03-22T09:12:55;93136.53;;;10.14;100.00
12475;BME280;6302;42.624;23.334;2023-03-22T09:15:22;93138.09;;;10.04;100.00
12475;BME280;6302;42.624;23.334;2023-03-22T09:17:48;93113.25;;;9.88;100.00
12475;BME280;6302;42.624;23.334;2023-03-22T09:20:17;93133.56;;;10.05;100.00
12475;BME280;6302;42.624;23.334;2023-03-22T09:22:44;93122.22;;;10.04;100.00
12475;BME280;6302;42.624;23.334;2023-03-22T09:25:11;93127.09;;;10.09;100.00
12475;BME280;6302;42.624;23.334;2023-03-22T09:27:37;93126.09;;;9.93;100.00
12475;BME280;6302;42.624;23.334;2023-03-22T09:30:06;93125.84;;;9.80;100.00
12475;BME280;6302;42.624;23.334;2023-03-22T09:32:33;93132.66;;;9.77;100.00
12475;BME280;6302;42.624;23.334;2023-03-22T09:35:00;93130.78;;;9.71;100.00
12475;BME280;6302;42.624;23.334;2023-03-22T09:37:28;93133.91;;;9.59;100.00
12475;BME280;6302;42.624;23.334;2023-03-22T09:39:55;93128.59;;;9.62;100.00
12475;BME280;6302;42.624;23.334;2023-03-22T09:42:28;93135.75;;;9.65;100.00
12475;BME280;6302;42.624;23.334;2023-03-22T09:45:00;93129.31;;;9.70;100.00
12475;BME280;6302;42.624;23.334;2023-03-22T09:47:33;93129.25;;;9.73;100.00
12475;BME280;6302;42.624;23.334;2023-03-22T09:50:05;93130.03;;;9.70;100.00
12475;BME280;6302;42.624;23.334;2023-03-22T09:52:35;93127.44;;;9.67;100.00
12475;BME280;6302;42.624;23.334;2023-03-22T09:55:02;93128.53;;;9.69;100.00
12475;BME280;6302;42.624;23.334;2023-03-22T09:57:32;93129.63;;;9.75;100.00
12475;BME280;6302;42.624;23.334;2023-03-22T10:00:10;93129.94;;;9.85;100.00
12475;BME280;6302;42.624;23.334;2023-03-22T10:02:49;93127.66;;;9.87;100.00
12475;BME280;6302;42.624;23.334;2023-03-22T10:05:24;93139.72;;;9.88;100.00
12475;BME280;6302;42.624;23.334;2023-03-22T10:08:07;93137.41;;;9.97;100.00
12475;BME280;6302;42.624;23.334;2023-03-22T10:10:37;93142.69;;;9.97;100.00
12475;BME280;6302;42.624;23.334;2023-03-22T10:13:12;93143.34;;;10.08;100.00
12475;BME280;6302;42.624;23.334;2023-03-22T10:15:44;93147.06;;;10.17;100.00
12475;BME280;6302;42.624;23.334;2023-03-22T10:18:18;93150.03;;;10.26;100.00
12475;BME280;6302;42.624;23.334;2023-03-22T10:20:48;93136.81;;;10.26;100.00
12475;BME280;6302;42.624;23.334;2023-03-22T10:23:26;93146.97;;;10.31;100.00
12475;BME280;6302;42.624;23.334;2023-03-22T10:25:55;93151.03;;;10.39;100.00
12475;BME280;6302;42.624;23.334;2023-03-22T10:28:26;93154.84;;;10.38;100.00
12475;BME280;6302;42.624;23.334;2023-03-22T10:30:55;93145.81;;;10.32;100.00
12475;BME280;6302;42.624;23.334;2023-03-22T10:33:38;93146.13;;;10.38;100.00
12475;BME280;6302;42.624;23.334;2023-03-22T10:36:10;93143.50;;;10.38;100.00
12475;BME280;6302;42.624;23.334;2023-03-22T10:38:44;93146.06;;;10.45;100.00
12475;BME280;6302;42.624;23.334;2023-03-22T10:41:15;93145.63;;;10.50;100.00
12475;BME280;6302;42.624;23.334;2023-03-22T10:43:44;93149.88;;;10.44;100.00
12475;BME280;6302;42.624;23.334;2023-03-22T10:46:16;93154.00;;;10.45;100.00
12475;BME280;6302;42.624;23.334;2023-03-22T10:48:45;93149.88;;;10.44;100.00
12475;BME280;6302;42.624;23.334;2023-03-22T10:51:19;93144.56;;;10.44;100.00
12475;BME280;6302;42.624;23.334;2023-03-22T10:53:49;93151.28;;;10.52;100.00
12475;BME280;6302;42.624;23.334;2023-03-22T10:56:19;93145.56;;;10.57;100.00
12475;BME280;6302;42.624;23.334;2023-03-22T10:58:46;93139.06;;;10.62;100.00
12475;BME280;6302;42.624;23.334;2023-03-22T11:01:15;93140.56;;;10.66;100.00
12475;BME280;6302;42.624;23.334;2023-03-22T11:03:43;93139.06;;;10.65;100.00
12475;BME280;6302;42.624;23.334;2023-03-22T11:06:15;93141.66;;;10.69;100.00
12475;BME280;6302;42.624;23.334;2023-03-22T11:08:44;93146.59;;;10.67;100.00
12475;BME280;6302;42.624;23.334;2023-03-22T11:11:19;93142.06;;;10.67;100.00
12475;BME280;6302;42.624;23.334;2023-03-22T11:13:52;93139.75;;;10.69;100.00
12475;BME280;6302;42.624;23.334;2023-03-22T11:16:19;93143.88;;;10.74;100.00
12475;BME280;6302;42.624;23.334;2023-03-22T11:18:47;93139.38;;;10.71;100.00
12475;BME280;6302;42.624;23.334;2023-03-22T11:21:15;93136.28;;;10.76;100.00
12475;BME280;6302;42.624;23.334;2023-03-22T11:23:51;93143.47;;;10.79;100.00
12475;BME280;6302;42.624;23.334;2023-03-22T11:26:28;93135.13;;;10.77;100.00
12475;BME280;6302;42.624;23.334;2023-03-22T11:29:05;93131.00;;;10.72;100.00
12475;BME280;6302;42.624;23.334;2023-03-22T11:31:54;93130.22;;;10.79;100.00
12475;BME280;6302;42.624;23.334;2023-03-22T11:34:25;93121.59;;;10.68;100.00
12475;BME280;6302;42.624;23.334;2023-03-22T11:36:52;93132.09;;;10.78;100.00
12475;BME280;6302;42.624;23.334;2023-03-22T11:39:22;93137.09;;;10.69;100.00
12475;BME280;6302;42.624;23.334;2023-03-22T11:41:53;93130.75;;;10.63;100.00
12475;BME280;6302;42.624;23.334;2023-03-22T11:44:25;93122.44;;;10.61;100.00
12475;BME280;6302;42.624;23.334;2023-03-22T11:46:54;93133.03;;;10.61;100.00
12475;BME280;6302;42.624;23.334;2023-03-22T11:49:24;93126.72;;;10.52;100.00
12475;BME280;6302;42.624;23.334;2023-03-22T11:51:53;93123.00;;;10.42;100.00
12475;BME280;6302;42.624;23.334;2023-03-22T11:54:26;93131.63;;;10.50;100.00
12475;BME280;6302;42.624;23.334;2023-03-22T11:56:58;93122.97;;;10.49;100.00
12475;BME280;6302;42.624;23.334;2023-03-22T11:59:29;93128.69;;;10.44;100.00
12475;BME280;6302;42.624;23.334;2023-03-22T12:02:08;93136.19;;;10.49;100.00
12475;BME280;6302;42.624;23.334;2023-03-22T12:04:40;93135.78;;;10.54;100.00
12475;BME280;6302;42.624;23.334;2023-03-22T12:07:14;93137.63;;;10.57;100.00
12475;BME280;6302;42.624;23.334;2023-03-22T12:09:43;93134.53;;;10.62;100.00
12475;BME280;6302;42.624;23.334;2023-03-22T12:12:16;93130.81;;;10.56;100.00
12475;BME280;6302;42.624;23.334;2023-03-22T12:14:48;93132.47;;;10.43;100.00
12475;BME280;6302;42.624;23.334;2023-03-22T12:17:23;93122.56;;;10.47;100.00
12475;BME280;6302;42.624;23.334;2023-03-22T12:19:58;93134.59;;;10.59;100.00
12475;BME280;6302;42.624;23.334;2023-03-22T12:22:32;93120.66;;;10.51;100.00
12475;BME280;6302;42.624;23.334;2023-03-22T12:24:59;93122.88;;;10.56;100.00
12475;BME280;6302;42.624;23.334;2023-03-22T12:27:30;93123.84;;;10.69;100.00
12475;BME280;6302;42.624;23.334;2023-03-22T12:30:02;93127.66;;;10.68;100.00
12475;BME280;6302;42.624;23.334;2023-03-22T12:32:34;93129.88;;;10.73;100.00
12475;BME280;6302;42.624;23.334;2023-03-22T12:35:06;93127.59;;;10.75;100.00
12475;BME280;6302;42.624;23.334;2023-03-22T12:37:38;93122.25;;;10.79;100.00
12475;BME280;6302;42.624;23.334;2023-03-22T12:40:16;93111.38;;;11.00;100.00
12475;BME280;6302;42.624;23.334;2023-03-22T12:42:50;93104.34;;;11.17;100.00
12475;BME280;6302;42.624;23.334;2023-03-22T12:45:25;93104.19;;;11.27;100.00
12475;BME280;6302;42.624;23.334;2023-03-22T12:47:56;93107.75;;;11.44;100.00
12475;BME280;6302;42.624;23.334;2023-03-22T12:50:30;93115.25;;;11.49;100.00
12475;BME280;6302;42.624;23.334;2023-03-22T12:52:58;93108.41;;;11.51;100.00
12475;BME280;6302;42.624;23.334;2023-03-22T12:55:29;93111.38;;;11.57;100.00
12475;BME280;6302;42.624;23.334;2023-03-22T12:57:59;93110.91;;;11.62;100.00
12475;BME280;6302;42.624;23.334;2023-03-22T13:00:27;93113.47;;;11.69;100.00
12475;BME280;6302;42.624;23.334;2023-03-22T13:02:58;93122.13;;;11.73;100.00
12475;BME280;6302;42.624;23.334;2023-03-22T13:05:28;93117.66;;;11.66;100.00
12475;BME280;6302;42.624;23.334;2023-03-22T13:07:55;93122.78;;;11.54;100.00
12475;BME280;6302;42.624;23.334;2023-03-22T13:13:40;93117.41;;;11.31;100.00
12475;BME280;6302;42.624;23.334;2023-03-22T13:16:24;93101.69;;;11.17;100.00
12475;BME280;6302;42.624;23.334;2023-03-22T13:19:25;93116.06;;;11.19;100.00